Time;durP1;ratioP1;P1;durP2;ratioP2;P2;SDS_P1;SDS_P2;PMS_P1;PMS_P2;Temp;Humidity;BMP_temperature;BMP_pressure;BME280_temperature;BME280_humidity;BME280_pressure;Samples;Min_cycle;Max_cycle;Signal;HPM_P1;HPM_P2
2023/07/26 00:01:49;;;;;;;13.93;9.98;;;;;;;-144.30;65.48;83623.66;5010057;28;20288;-53
2023/07/26 00:04:16;;;;;;;13.23;9.07;;;;;;;-144.30;65.47;83655.44;5009341;28;20241;-49
2023/07/26 00:06:42;;;;;;;11.75;9.02;;;;;;;-144.30;64.86;83621.66;5009968;28;20705;-53
2023/07/26 00:09:11;;;;;;;13.40;9.57;;;;;;;-144.30;65.37;83681.28;5013862;28;20685;-52
2023/07/26 00:11:38;;;;;;;16.55;9.13;;;;;;;-144.30;64.94;83651.47;5013527;28;20205;-49
2023/07/26 00:14:05;;;;;;;10.48;9.45;;;;;;;-144.30;64.99;83633.59;5013768;28;20198;-53
2023/07/26 00:16:32;;;;;;;16.23;9.70;;;;;;;-144.30;65.16;83707.09;5013611;28;20202;-53
2023/07/26 00:18:59;;;;;;;11.50;9.38;;;;;;;-144.30;64.69;83723.00;5013217;28;20248;-53
2023/07/26 00:21:26;;;;;;;11.30;9.18;;;;;;;-144.30;64.65;83709.09;5013550;28;20203;-47
2023/07/26 00:23:53;;;;;;;10.23;9.10;;;;;;;-144.30;64.83;83689.22;5013422;28;20198;-49
2023/07/26 00:26:22;;;;;;;14.90;9.05;;;;;;;-144.30;65.49;83681.28;5013683;28;20666;-53
2023/07/26 00:28:48;;;;;;;15.80;9.38;;;;;;;-144.30;65.69;83738.88;5013200;28;20229;-49
2023/07/26 00:31:15;;;;;;;15.13;10.70;;;;;;;-144.30;65.91;83723.00;5013048;28;20230;-53
2023/07/26 00:33:42;;;;;;;15.85;9.93;;;;;;;-144.30;66.29;83734.91;5013419;28;20202;-49
2023/07/26 00:36:10;;;;;;;11.55;9.57;;;;;;;-144.30;66.38;83719.03;5013309;28;20861;-50
2023/07/26 00:38:37;;;;;;;11.18;9.00;;;;;;;-144.30;66.60;83719.03;5013380;28;20296;-52
2023/07/26 00:41:06;;;;;;;11.10;9.45;;;;;;;-144.30;66.96;83732.94;5013155;28;20204;-49
2023/07/26 00:43:35;;;;;;;10.88;9.63;;;;;;;-144.30;67.28;83730.94;5012968;28;20204;-49
2023/07/26 00:46:02;;;;;;;14.05;9.82;;;;;;;-144.30;67.94;83738.88;5012708;28;20579;-48
2023/07/26 00:48:29;;;;;;;13.10;9.52;;;;;;;-144.30;68.82;83748.81;5013094;28;20666;-52
2023/07/26 00:50:56;;;;;;;14.18;10.05;;;;;;;-144.30;69.29;83766.72;5012826;28;20232;-53
2023/07/26 00:53:24;;;;;;;13.35;10.30;;;;;;;-144.30;69.32;83794.53;5013293;28;20717;-53
2023/07/26 00:55:51;;;;;;;17.40;10.75;;;;;;;-144.30;69.87;83770.69;5013232;28;20632;-52
2023/07/26 00:58:18;;;;;;;11.82;9.85;;;;;;;-144.30;70.09;83778.63;5012740;28;20194;-52
2023/07/26 01:00:47;;;;;;;11.27;10.32;;;;;;;-144.30;70.21;83736.91;5012467;28;20191;-48
2023/07/26 01:03:15;;;;;;;13.00;9.60;;;;;;;-144.30;70.12;83774.66;5012618;28;20202;-53
2023/07/26 01:05:55;;;;;;;12.00;10.13;;;;;;;-144.30;69.83;83713.06;5012527;28;20194;-52
2023/07/26 01:08:34;;;;;;;17.80;10.27;;;;;;;-144.30;69.64;83768.69;5012662;28;20202;-49
2023/07/26 01:11:06;;;;;;;13.05;10.25;;;;;;;-144.30;69.50;83770.69;5012131;28;20285;-53
2023/07/26 01:13:41;;;;;;;12.40;10.43;;;;;;;-144.30;69.22;83812.41;5012601;28;20201;-52
2023/07/26 01:16:10;;;;;;;14.65;11.27;;;;;;;-144.30;69.25;83810.41;5012539;28;20449;-53
2023/07/26 01:18:38;;;;;;;11.57;10.40;;;;;;;-144.30;69.52;83830.28;5012348;28;20694;-53
2023/07/26 01:21:04;;;;;;;13.90;10.25;;;;;;;-144.30;69.17;83776.66;5011982;28;20653;-52
2023/07/26 01:23:33;;;;;;;11.40;10.27;;;;;;;-144.30;69.10;83774.66;5012251;28;20206;-50
2023/07/26 01:26:00;;;;;;;10.95;9.88;;;;;;;-144.30;68.84;83794.53;5012360;28;20663;-49
2023/07/26 01:28:27;;;;;;;13.57;10.15;;;;;;;-144.30;68.38;83800.50;5012632;28;20261;-48
2023/07/26 01:30:57;;;;;;;11.95;10.68;;;;;;;-144.30;68.77;83846.19;5012281;28;20228;-53
2023/07/26 01:33:25;;;;;;;11.15;10.07;;;;;;;-144.30;68.65;83826.31;5012295;28;20198;-53
2023/07/26 01:35:53;;;;;;;10.38;9.32;;;;;;;-144.30;68.45;83794.53;5011864;28;20194;-53
2023/07/26 01:38:21;;;;;;;11.88;9.80;;;;;;;-144.30;68.40;83810.41;5012299;28;20212;-53
2023/07/26 01:40:51;;;;;;;12.05;9.95;;;;;;;-144.30;68.62;83806.44;5012190;28;20796;-52
2023/07/26 01:43:18;;;;;;;10.82;9.88;;;;;;;-144.30;68.66;83836.25;5012143;28;20692;-47
2023/07/26 01:45:45;;;;;;;14.35;9.98;;;;;;;-144.30;68.47;83806.44;5012118;28;20205;-51
2023/07/26 01:48:12;;;;;;;12.30;10.45;;;;;;;-144.30;68.63;83808.44;5011784;28;20202;-52
2023/07/26 01:50:39;;;;;;;13.05;10.23;;;;;;;-144.30;68.43;83838.25;5011716;28;20225;-49
2023/07/26 01:53:05;;;;;;;14.57;10.27;;;;;;;-144.30;68.05;83828.31;5012045;28;20198;-49
2023/07/26 01:55:32;;;;;;;12.80;9.50;;;;;;;-144.30;67.75;83818.38;5011793;28;20198;-52
2023/07/26 01:58:01;;;;;;;10.88;9.80;;;;;;;-144.30;67.35;83806.44;5011891;28;20700;-53
2023/07/26 02:00:27;;;;;;;17.58;10.02;;;;;;;-144.30;67.20;83802.47;5026903;28;20193;-52
2023/07/26 02:02:54;;;;;;;12.18;9.75;;;;;;;-144.30;67.32;83822.34;5031307;28;20201;-48
2023/07/26 02:05:21;;;;;;;13.15;9.70;;;;;;;-144.30;66.51;83830.28;5031570;28;20667;-48
2023/07/26 02:07:48;;;;;;;16.35;9.75;;;;;;;-144.30;67.02;83788.56;5031304;28;20556;-52
2023/07/26 02:10:15;;;;;;;10.55;9.48;;;;;;;-144.30;67.07;83836.25;5031251;28;20225;-49
2023/07/26 02:12:42;;;;;;;12.50;9.70;;;;;;;-144.30;67.39;83834.25;5031097;28;20713;-50
2023/07/26 02:15:11;;;;;;;13.95;9.60;;;;;;;-144.30;67.15;83848.19;5031168;28;20681;-48
2023/07/26 02:17:38;;;;;;;10.60;9.45;;;;;;;-144.30;66.65;83802.47;5030972;28;20204;-49
2023/07/26 02:20:05;;;;;;;11.02;9.88;;;;;;;-144.30;66.46;83802.47;5031175;28;20197;-53
2023/07/26 02:22:33;;;;;;;13.07;10.40;;;;;;;-144.30;66.35;83790.56;5031470;28;20670;-50
2023/07/26 02:24:59;;;;;;;16.10;9.60;;;;;;;-144.30;66.27;83826.31;5031246;28;20197;-52
2023/07/26 02:27:26;;;;;;;16.30;9.85;;;;;;;-144.30;66.24;83794.53;5031054;28;20585;-52
2023/07/26 02:29:53;;;;;;;13.85;10.90;;;;;;;-144.30;66.38;83826.31;5030685;28;20209;-52
2023/07/26 02:32:21;;;;;;;10.80;9.68;;;;;;;-144.30;66.56;83818.38;5029692;28;20200;-52
2023/07/26 02:34:48;;;;;;;12.07;10.05;;;;;;;-144.30;66.74;83877.97;5030512;28;20236;-53
2023/07/26 02:37:15;;;;;;;12.90;10.05;;;;;;;-144.30;66.58;83800.50;5030824;28;20197;-52
2023/07/26 02:39:42;;;;;;;16.25;10.25;;;;;;;-144.30;66.61;84458.25;5030700;28;20201;-51
2023/07/26 02:42:09;;;;;;;12.02;10.10;;;;;;;-144.30;66.91;83864.06;5030827;28;20662;-49
2023/07/26 02:44:36;;;;;;;13.35;10.23;;;;;;;-144.30;67.10;83897.84;5030592;28;20782;-53
2023/07/26 02:47:04;;;;;;;16.88;9.95;;;;;;;-144.30;67.08;84227.72;5030417;28;20289;-49
2023/07/26 02:49:32;;;;;;;14.23;10.43;;;;;;;-144.30;67.63;83893.88;5030862;28;20590;-47
2023/07/26 02:51:59;;;;;;;13.30;10.95;;;;;;;-144.30;68.03;83858.09;5030495;28;20678;-53
2023/07/26 02:54:26;;;;;;;20.27;10.90;;;;;;;-144.30;67.91;83868.03;5030538;28;20227;-52
2023/07/26 02:56:53;;;;;;;18.25;10.25;;;;;;;-144.30;68.12;83883.94;5030257;28;20197;-53
2023/07/26 02:59:20;;;;;;;12.93;10.07;;;;;;;-144.30;68.04;83852.16;5030162;28;20197;-52
2023/07/26 03:01:47;;;;;;;13.48;10.50;;;;;;;-144.30;68.01;83856.13;5029701;28;20190;-53
2023/07/26 03:04:14;;;;;;;14.95;9.60;;;;;;;-144.30;67.99;83842.22;5030094;28;20311;-49
2023/07/26 03:06:42;;;;;;;14.38;11.13;;;;;;;-144.30;67.83;83874.00;5030154;28;20668;-52
2023/07/26 03:09:09;;;;;;;15.23;11.05;;;;;;;-144.30;68.13;83905.81;5018567;28;20308;-48
2023/07/26 03:11:37;;;;;;;15.10;10.57;;;;;;;-144.30;67.96;83856.13;5024656;28;20217;-53
2023/07/26 03:14:03;;;;;;;15.73;11.20;;;;;;;-144.30;68.35;83899.84;5013111;28;20613;-48
2023/07/26 03:16:30;;;;;;;13.30;10.73;;;;;;;-144.30;68.47;83836.25;5018479;28;20194;-49
2023/07/26 03:18:57;;;;;;;14.77;10.85;;;;;;;-144.30;68.23;83860.09;5019819;28;20193;-48
2023/07/26 03:21:24;;;;;;;16.13;11.07;;;;;;;-144.30;68.64;83868.03;5019809;28;20198;-52
2023/07/26 03:23:53;;;;;;;16.42;11.57;;;;;;;-144.30;68.83;83866.06;5018226;28;20728;-52
2023/07/26 03:26:19;;;;;;;17.50;12.00;;;;;;;-144.30;68.28;83842.22;5019370;28;20618;-53
2023/07/26 03:28:46;;;;;;;15.35;11.73;;;;;;;-144.30;68.27;83838.25;5019567;28;20198;-53
2023/07/26 03:31:13;;;;;;;19.25;11.70;;;;;;;-144.30;67.96;83854.13;5023499;28;20220;-53
2023/07/26 03:33:40;;;;;;;13.60;11.05;;;;;;;-144.30;67.70;83885.94;5016712;28;20194;-53
2023/07/26 03:36:07;;;;;;;15.93;11.30;;;;;;;-144.30;66.94;83870.03;5018785;28;20194;-52
2023/07/26 03:38:33;;;;;;;12.85;11.55;;;;;;;-144.30;66.98;83858.09;5020980;28;20197;-53
2023/07/26 03:41:01;;;;;;;14.70;10.77;;;;;;;-144.30;67.21;83874.00;5030035;28;20197;-48
2023/07/26 03:43:28;;;;;;;15.77;11.35;;;;;;;-144.30;66.86;83877.97;5021467;28;20654;-52
2023/07/26 03:45:55;;;;;;;17.55;11.57;;;;;;;-144.30;67.32;83905.81;5023120;28;20201;-49
2023/07/26 03:48:22;;;;;;;14.73;11.23;;;;;;;-144.30;67.21;83905.81;5019615;28;20694;-49
2023/07/26 03:50:49;;;;;;;15.57;10.52;;;;;;;-144.30;67.14;83881.97;5019199;28;20240;-50
2023/07/26 03:53:16;;;;;;;20.42;10.80;;;;;;;-144.30;66.78;83895.88;5017728;28;20204;-53
2023/07/26 03:55:43;;;;;;;14.70;10.52;;;;;;;-144.30;66.63;83870.03;5019095;28;20189;-48
2023/07/26 03:58:11;;;;;;;14.25;10.32;;;;;;;-144.30;66.66;83907.78;5021248;28;20204;-47
2023/07/26 04:00:38;;;;;;;14.38;10.63;;;;;;;-144.30;66.54;83925.66;5014025;28;20202;-53
2023/07/26 04:03:05;;;;;;;12.68;10.43;;;;;;;-144.30;66.53;83903.81;5021432;28;20198;-47
2023/07/26 04:05:33;;;;;;;13.52;10.70;;;;;;;-144.30;66.45;83911.75;5020091;28;20193;-48
2023/07/26 04:08:00;;;;;;;14.95;10.75;;;;;;;-144.30;66.37;83941.56;5018879;28;20208;-53
2023/07/26 04:10:28;;;;;;;18.80;10.65;;;;;;;-144.30;65.83;83921.69;5028448;28;20199;-49
2023/07/26 04:12:55;;;;;;;11.73;10.50;;;;;;;-144.30;65.53;83905.81;5030238;28;20208;-48
2023/07/26 04:15:23;;;;;;;13.90;9.30;;;;;;;-144.30;64.89;83907.78;5030225;28;20201;-47
2023/07/26 04:17:50;;;;;;;12.10;9.98;;;;;;;-144.30;64.53;83891.88;5029856;28;20219;-53
2023/07/26 04:20:17;;;;;;;12.70;10.63;;;;;;;-144.30;64.11;83862.09;5030219;28;20264;-48
2023/07/26 04:22:44;;;;;;;15.70;10.20;;;;;;;-144.30;62.15;83778.63;5029901;28;20197;-48
2023/07/26 04:25:11;;;;;;;18.80;10.18;;;;;;;-144.30;60.05;83671.34;5026720;28;20443;-49
2023/07/26 04:27:38;;;;;;;19.90;9.60;;;;;;;-144.30;58.12;83647.50;5012570;28;20198;-47
2023/07/26 04:30:05;;;;;;;13.35;8.88;;;;;;;-144.30;56.97;83526.28;5009893;28;20574;-53
2023/07/26 04:32:34;;;;;;;12.45;9.18;;;;;;;-144.30;56.49;83552.13;5010014;28;20229;-48
2023/07/26 04:35:01;;;;;;;15.02;9.10;;;;;;;-144.30;55.54;83480.59;5009815;28;20200;-47
2023/07/26 04:37:27;;;;;;;14.20;9.52;;;;;;;-144.30;54.75;83454.75;5009363;28;20205;-48
2023/07/26 04:39:54;;;;;;;14.80;9.38;;;;;;;-144.30;53.53;83361.38;5010220;28;20700;-48
2023/07/26 04:42:21;;;;;;;14.35;9.73;;;;;;;-144.30;53.12;83337.53;5010350;28;20194;-52
2023/07/26 04:44:48;;;;;;;12.18;9.63;;;;;;;-144.30;52.11;83293.84;5010078;28;20218;-53
2023/07/26 04:47:18;;;;;;;11.05;10.05;;;;;;;-144.30;50.75;83186.56;5010173;28;20820;-53
2023/07/26 04:49:46;;;;;;;17.20;8.93;;;;;;;-144.30;50.72;83244.16;5009925;28;20198;-53
2023/07/26 04:52:13;;;;;;;11.20;9.50;;;;;;;-144.30;50.35;83150.78;5009600;28;20225;-53
2023/07/26 04:54:40;;;;;;;17.77;9.80;;;;;;;-144.30;50.01;83160.72;5010802;28;20194;-53
2023/07/26 04:57:07;;;;;;;14.07;9.68;;;;;;;-144.30;48.53;83015.69;5013614;28;20578;-54
2023/07/26 04:59:33;;;;;;;9.68;8.77;;;;;;;-144.30;48.67;83071.31;5013056;28;20209;-53
2023/07/26 05:02:00;;;;;;;11.55;9.65;;;;;;;-144.30;48.30;83007.75;5012885;28;20190;-53
2023/07/26 05:04:27;;;;;;;19.48;9.85;;;;;;;-144.30;47.59;82987.88;5022801;28;20233;-54
2023/07/26 05:06:55;;;;;;;15.30;9.68;;;;;;;-144.30;46.80;82896.50;5032511;28;20203;-53
2023/07/26 05:09:22;;;;;;;12.88;9.27;;;;;;;-144.30;47.26;82892.53;5032750;28;20220;-47
2023/07/26 05:11:49;;;;;;;12.20;9.32;;;;;;;-144.30;45.68;82729.66;5032930;28;20233;-49
2023/07/26 05:14:17;;;;;;;13.52;9.25;;;;;;;-144.30;44.42;82713.75;5033027;28;20205;-48
2023/07/26 05:16:44;;;;;;;14.90;9.55;;;;;;;-144.30;43.65;82656.16;5033162;28;20712;-53
2023/07/26 05:19:11;;;;;;;15.02;9.55;;;;;;;-144.30;43.14;82570.75;5033046;28;20258;-54
2023/07/26 05:21:37;;;;;;;18.20;9.27;;;;;;;-144.30;41.28;82356.22;5033363;28;20252;-49
2023/07/26 05:24:06;;;;;;;15.25;9.25;;;;;;;-144.30;40.06;82094.06;5032815;28;20205;-49
2023/07/26 05:26:33;;;;;;;18.42;10.32;;;;;;;-144.30;39.16;81937.16;5032794;28;20204;-49
2023/07/26 05:29:00;;;;;;;13.13;10.50;;;;;;;-144.30;38.20;81800.13;5032708;28;20580;-48
2023/07/26 05:31:27;;;;;;;14.10;10.13;;;;;;;-144.30;37.42;81679.00;5032626;28;20221;-53
2023/07/26 05:33:54;;;;;;;12.40;9.02;;;;;;;-144.30;36.64;81581.69;5032797;28;20638;-53
2023/07/26 05:36:21;;;;;;;17.52;9.55;;;;;;;-144.30;35.59;81383.13;5025823;28;20744;-47
2023/07/26 05:38:47;;;;;;;16.02;8.70;;;;;;;-144.30;35.44;81271.94;5031823;28;20203;-49
2023/07/26 05:41:16;;;;;;;10.80;8.73;;;;;;;-144.30;34.43;81172.66;5031997;28;20200;-48
2023/07/26 05:43:43;;;;;;;16.48;9.02;;;;;;;-144.30;34.23;81214.34;5027575;28;20197;-50
2023/07/26 05:46:10;;;;;;;14.45;8.57;;;;;;;-144.30;34.27;81176.63;5021735;28;20300;-49
2023/07/26 05:48:37;;;;;;;16.27;9.32;;;;;;;-144.30;34.03;81192.50;5023044;28;20292;-54
2023/07/26 05:51:04;;;;;;;9.65;8.73;;;;;;;-144.30;33.27;80988.00;5020928;28;20200;-53
2023/07/26 05:53:31;;;;;;;18.20;9.13;;;;;;;-144.30;32.55;80799.41;5022156;28;20200;-54
2023/07/26 05:55:57;;;;;;;11.95;9.20;;;;;;;-144.30;32.66;80974.13;5022847;28;20201;-54
2023/07/26 05:58:26;;;;;;;12.90;9.20;;;;;;;-144.30;33.65;81188.53;5021077;28;20202;-52
2023/07/26 06:00:53;;;;;;;17.60;10.25;;;;;;;-144.30;33.84;81188.53;5024538;28;20203;-49
2023/07/26 06:03:20;;;;;;;15.73;9.30;;;;;;;-144.30;33.62;81178.63;5031953;28;20339;-53
2023/07/26 06:05:47;;;;;;;13.63;8.68;;;;;;;-144.30;34.11;81101.19;5031931;28;20205;-53
2023/07/26 06:08:14;;;;;;;10.43;8.38;;;;;;;-144.30;34.93;81490.34;5032164;28;20203;-47
2023/07/26 06:10:41;;;;;;;12.70;8.73;;;;;;;-144.30;34.67;81375.19;5032239;28;20201;-48
2023/07/26 06:13:12;;;;;;;10.50;9.45;;;;;;;-144.30;34.03;81307.69;5031727;28;20217;-53
2023/07/26 06:15:41;;;;;;;12.70;9.50;;;;;;;-144.30;34.67;81426.81;5031898;28;20291;-53
2023/07/26 06:18:08;;;;;;;15.35;8.68;;;;;;;-144.30;35.22;81484.41;5031899;28;20201;-47
2023/07/26 06:20:35;;;;;;;14.80;9.85;;;;;;;-144.30;34.58;81323.56;5031702;28;20199;-48
2023/07/26 06:23:02;;;;;;;13.80;8.75;;;;;;;-144.30;33.83;81196.50;5031533;28;20288;-53
2023/07/26 06:25:29;;;;;;;11.38;8.65;;;;;;;-144.30;33.32;81121.03;5031601;28;20193;-48
2023/07/26 06:27:56;;;;;;;22.08;9.63;;;;;;;-144.30;33.53;81049.56;5031402;28;20201;-53
2023/07/26 06:30:22;;;;;;;17.83;9.30;;;;;;;-144.30;33.31;81200.47;5031607;28;20196;-53
2023/07/26 06:32:51;;;;;;;23.00;8.75;;;;;;;-144.30;32.95;80904.63;5031226;28;20216;-53
2023/07/26 06:35:18;;;;;;;20.33;8.25;;;;;;;-144.30;32.83;80876.84;5031472;28;20204;-49
2023/07/26 06:37:45;;;;;;;18.83;9.43;;;;;;;-144.30;33.09;80954.25;5031538;28;20196;-53
2023/07/26 06:40:13;;;;;;;25.52;10.38;;;;;;;-144.30;33.17;80932.41;5031072;28;20201;-54
2023/07/26 06:42:40;;;;;;;17.60;10.43;;;;;;;-144.30;33.04;80823.22;5031283;28;20193;-52
2023/07/26 06:45:08;;;;;;;16.27;9.13;;;;;;;-144.30;32.82;80817.28;5031147;28;20196;-53
2023/07/26 06:47:34;;;;;;;13.93;9.48;;;;;;;-144.30;32.66;80751.75;5031216;28;20288;-53
2023/07/26 06:50:03;;;;;;;15.27;9.65;;;;;;;-144.30;34.58;81192.50;5031152;28;20201;-54
2023/07/26 06:52:31;;;;;;;14.10;9.52;;;;;;;-144.30;34.55;81168.69;5030845;28;20221;-49
2023/07/26 06:54:58;;;;;;;17.80;10.45;;;;;;;-144.30;34.69;81180.59;5030863;28;20197;-50
2023/07/26 06:57:24;;;;;;;12.43;9.77;;;;;;;-144.30;34.87;81180.59;5031180;28;20664;-48
2023/07/26 06:59:52;;;;;;;25.75;9.95;;;;;;;-144.30;34.53;81174.66;5030951;28;20201;-49
2023/07/26 07:02:18;;;;;;;12.13;9.60;;;;;;;-144.30;34.42;81168.69;5031131;28;20195;-49
2023/07/26 07:04:45;;;;;;;21.42;10.23;;;;;;;-144.30;34.52;81144.88;5030649;28;20313;-50
2023/07/26 07:07:14;;;;;;;16.10;9.70;;;;;;;-144.30;34.35;81117.06;5030680;28;20201;-49
2023/07/26 07:09:40;;;;;;;17.13;10.32;;;;;;;-144.30;34.93;81256.06;5030582;28;20203;-48
2023/07/26 07:12:09;;;;;;;13.02;9.73;;;;;;;-144.30;34.95;81210.38;5030775;28;20695;-53
2023/07/26 07:14:36;;;;;;;11.75;9.80;;;;;;;-144.30;35.17;81212.38;5030850;28;20224;-54
2023/07/26 07:17:03;;;;;;;20.20;10.05;;;;;;;-144.30;34.69;81152.81;5029820;28;20519;-49
2023/07/26 07:19:30;;;;;;;14.52;9.38;;;;;;;-144.30;34.70;81079.34;5030036;28;20536;-49
2023/07/26 07:21:57;;;;;;;16.38;9.43;;;;;;;-144.30;33.80;80964.19;5030038;28;20203;-53
2023/07/26 07:24:25;;;;;;;12.07;9.50;;;;;;;-144.30;33.56;80908.59;5030730;28;20667;-49
2023/07/26 07:26:52;;;;;;;12.27;9.57;;;;;;;-144.30;33.48;80904.63;5030359;28;20201;-48
2023/07/26 07:29:19;;;;;;;19.95;10.07;;;;;;;-144.30;34.26;81079.34;5030564;28;20207;-54
2023/07/26 07:31:46;;;;;;;9.95;9.00;;;;;;;-144.30;34.52;81140.91;5030355;28;20221;-48
2023/07/26 07:34:13;;;;;;;12.75;9.75;;;;;;;-144.30;33.96;80982.06;5030477;28;20584;-53
2023/07/26 07:36:40;;;;;;;11.63;9.15;;;;;;;-144.30;34.08;80982.06;5030348;28;20224;-49
2023/07/26 07:39:09;;;;;;;16.40;9.38;;;;;;;-144.30;34.22;80954.25;5030412;28;20197;-50
2023/07/26 07:41:38;;;;;;;16.17;9.48;;;;;;;-144.30;33.29;80749.78;5030133;28;20207;-49
2023/07/26 07:44:05;;;;;;;13.25;9.85;;;;;;;-144.30;33.30;80747.78;5030347;28;20288;-53
2023/07/26 07:46:32;;;;;;;14.65;9.55;;;;;;;-144.30;33.06;80684.25;5030184;28;20315;-49
2023/07/26 07:48:59;;;;;;;15.20;9.15;;;;;;;-144.30;33.14;80565.16;5029781;28;20296;-53
2023/07/26 07:51:26;;;;;;;18.98;10.13;;;;;;;-144.30;32.85;80477.81;5030199;28;20204;-48
2023/07/26 07:53:54;;;;;;;11.23;9.43;;;;;;;-144.30;32.12;80414.28;5030305;28;20200;-53
2023/07/26 07:56:21;;;;;;;13.32;9.25;;;;;;;-144.30;31.88;80328.94;5030124;28;20295;-48
2023/07/26 07:58:49;;;;;;;10.07;9.07;;;;;;;-144.30;31.75;80396.41;5030150;28;20193;-50
2023/07/26 08:01:16;;;;;;;17.08;9.23;;;;;;;-144.30;31.18;80259.44;5029878;28;20203;-53
2023/07/26 08:03:43;;;;;;;16.83;9.80;;;;;;;-144.30;30.64;80062.94;5029990;28;20235;-49
2023/07/26 08:06:11;;;;;;;9.95;8.95;;;;;;;-144.30;30.08;79836.69;5029799;28;20203;-49
2023/07/26 08:08:38;;;;;;;13.48;9.18;;;;;;;-144.30;30.25;79983.53;5030346;28;20200;-49
2023/07/26 08:11:06;;;;;;;16.25;8.85;;;;;;;-144.30;30.16;79767.22;5029772;28;20205;-54
2023/07/26 08:13:33;;;;;;;14.57;10.07;;;;;;;-144.30;29.83;79654.09;5029904;28;20220;-53
2023/07/26 08:16:02;;;;;;;12.32;9.85;;;;;;;-144.30;29.65;79683.84;5029809;28;20752;-48
2023/07/26 08:18:29;;;;;;;11.45;10.30;;;;;;;-144.30;29.88;79717.59;5029937;28;20189;-50
2023/07/26 08:20:56;;;;;;;14.25;10.00;;;;;;;-144.30;29.72;79513.19;5029817;28;20207;-53
2023/07/26 08:23:23;;;;;;;13.32;9.63;;;;;;;-144.30;29.45;79741.41;5030068;28;20188;-53
2023/07/26 08:25:50;;;;;;;13.20;9.52;;;;;;;-144.30;29.71;79729.50;5030004;28;20733;-53
2023/07/26 08:28:16;;;;;;;12.85;10.00;;;;;;;-144.30;29.64;79667.97;5030603;28;20295;-53
2023/07/26 08:30:43;;;;;;;13.48;9.88;;;;;;;-144.30;29.85;79870.41;5033598;28;20212;-54
2023/07/26 08:33:12;;;;;;;16.50;10.38;;;;;;;-144.30;29.43;79723.53;5033749;28;20220;-53
2023/07/26 08:35:39;;;;;;;14.30;9.77;;;;;;;-144.30;29.51;79717.59;5033739;28;20196;-48
2023/07/26 08:38:06;;;;;;;24.30;11.40;;;;;;;-144.30;30.15;79890.25;5033436;28;20192;-50
2023/07/26 08:40:34;;;;;;;14.57;9.60;;;;;;;-144.30;29.88;79973.63;5032390;28;20224;-53
2023/07/26 08:43:04;;;;;;;16.52;11.18;;;;;;;-144.30;30.93;80152.25;5028712;28;20201;-53
2023/07/26 08:45:33;;;;;;;19.73;12.50;;;;;;;-144.30;31.41;80416.28;5013663;28;20237;-48
2023/07/26 08:48:01;;;;;;;12.82;9.93;;;;;;;-144.30;32.24;80531.41;5013539;28;20193;-49
2023/07/26 08:50:30;;;;;;;17.05;10.23;;;;;;;-144.30;32.38;80505.59;5013069;28;20194;-52
2023/07/26 08:52:57;;;;;;;16.70;10.32;;;;;;;-144.30;32.10;80483.75;5012951;28;20225;-47
2023/07/26 08:55:24;;;;;;;16.10;11.07;;;;;;;-144.30;32.34;80465.91;5013470;28;20201;-47
2023/07/26 08:57:52;;;;;;;14.50;10.15;;;;;;;-144.30;32.26;80539.34;5013189;28;20550;-48
2023/07/26 09:00:19;;;;;;;12.90;10.45;;;;;;;-144.30;32.36;80561.19;5013307;28;20214;-49
2023/07/26 09:02:49;;;;;;;15.52;9.90;;;;;;;-144.30;32.22;80436.13;5013347;28;20265;-53
2023/07/26 09:05:16;;;;;;;12.38;10.00;;;;;;;-144.30;32.00;80529.41;5012991;28;20225;-48
2023/07/26 09:07:44;;;;;;;13.50;9.48;;;;;;;-144.30;32.22;80529.41;5013346;28;20208;-48
2023/07/26 09:10:11;;;;;;;15.40;10.15;;;;;;;-144.30;31.64;80505.59;5013119;28;20197;-52
2023/07/26 09:12:38;;;;;;;16.80;9.27;;;;;;;-144.30;31.54;80434.13;5013082;28;20233;-50
2023/07/26 09:15:06;;;;;;;15.18;9.32;;;;;;;-144.30;31.68;80487.72;5013042;28;20197;-54
2023/07/26 09:17:40;;;;;;;14.48;10.15;;;;;;;-144.30;31.82;80453.97;5013238;28;20197;-49
2023/07/26 09:20:20;;;;;;;17.75;9.80;;;;;;;-144.30;31.67;80416.28;5013071;28;20574;-53
2023/07/26 09:22:58;;;;;;;10.25;9.25;;;;;;;-144.30;31.52;80336.88;5012927;28;20197;-52
2023/07/26 09:25:33;;;;;;;13.15;9.52;;;;;;;-144.30;31.68;80479.78;5013353;28;20578;-53
2023/07/26 09:28:00;;;;;;;24.33;10.20;;;;;;;-144.30;31.44;80511.56;5013236;28;20860;-52
2023/07/26 09:30:28;;;;;;;16.38;9.55;;;;;;;-144.30;31.42;80340.84;5013160;28;20257;-52
2023/07/26 09:32:55;;;;;;;19.20;10.35;;;;;;;-144.30;31.53;80398.41;5012763;28;20249;-52
2023/07/26 09:35:22;;;;;;;13.20;9.45;;;;;;;-144.30;31.59;80265.41;5012735;28;20200;-53
2023/07/26 09:37:50;;;;;;;20.27;9.52;;;;;;;-144.30;31.64;80279.28;5012502;28;20209;-53
2023/07/26 09:40:17;;;;;;;14.65;9.70;;;;;;;-144.30;31.71;80285.25;5012375;28;20202;-50
2023/07/26 09:42:46;;;;;;;18.55;10.13;;;;;;;-144.30;31.99;80513.53;5012830;28;20197;-53
2023/07/26 09:45:19;;;;;;;16.48;9.90;;;;;;;-144.30;32.06;80382.53;5012546;28;20288;-48
2023/07/26 09:47:46;;;;;;;17.77;9.80;;;;;;;-144.30;31.75;80489.72;5012407;28;20213;-49
2023/07/26 09:50:25;;;;;;;19.10;10.07;;;;;;;-144.30;32.01;80557.22;5012702;28;20201;-50
2023/07/26 09:52:55;;;;;;;17.58;10.25;;;;;;;-144.30;32.06;80551.25;5012368;28;20662;-50
2023/07/26 09:55:24;;;;;;;15.38;10.05;;;;;;;-144.30;32.61;80660.44;5012341;28;20586;-50
2023/07/26 09:57:53;;;;;;;22.13;10.60;;;;;;;-144.30;33.69;80856.97;5012254;28;20233;-48
2023/07/26 10:00:23;;;;;;;13.65;10.45;;;;;;;-144.30;33.39;80723.97;5012140;28;20264;-52
2023/07/26 10:02:55;;;;;;;15.82;9.90;;;;;;;-144.30;33.05;80585.00;5012154;28;20197;-53
2023/07/26 10:05:24;;;;;;;18.13;10.07;;;;;;;-144.30;32.32;80485.75;5011847;28;20252;-53
2023/07/26 10:07:51;;;;;;;16.55;10.48;;;;;;;-144.30;32.10;80444.06;5014499;28;20339;-49
2023/07/26 10:10:21;;;;;;;74.40;65.53;;;;;;;-144.30;32.36;80585.00;5027848;28;20234;-54
2023/07/26 10:12:52;;;;;;;17.13;14.35;;;;;;;-144.30;32.38;80698.16;5020182;28;20638;-52
2023/07/26 10:15:21;;;;;;;13.48;10.20;;;;;;;-144.30;32.31;80692.19;5027221;28;20266;-53
2023/07/26 10:17:52;;;;;;;15.23;9.50;;;;;;;-144.30;31.96;80620.72;5031554;28;20208;-53
2023/07/26 10:20:19;;;;;;;14.05;12.18;;;;;;;-144.30;32.70;80819.25;5030521;28;20205;-52
2023/07/26 10:22:47;;;;;;;13.77;11.07;;;;;;;-144.30;32.51;80733.88;5031505;28;20203;-50
2023/07/26 10:25:14;;;;;;;16.42;10.13;;;;;;;-144.30;32.34;80727.94;5031397;28;20677;-48
2023/07/26 10:27:43;;;;;;;11.55;10.02;;;;;;;-144.30;32.49;80795.44;5031561;28;20199;-49
2023/07/26 10:30:11;;;;;;;19.20;10.15;;;;;;;-144.30;32.14;80731.91;5031391;28;20236;-52
2023/07/26 10:32:41;;;;;;;14.85;10.30;;;;;;;-144.30;32.12;80672.34;5031376;28;20203;-49
2023/07/26 10:35:10;;;;;;;12.15;9.75;;;;;;;-144.30;31.95;80805.34;5031231;28;20208;-53
2023/07/26 10:37:37;;;;;;;19.42;10.38;;;;;;;-144.30;32.39;80851.03;5031380;28;20193;-49
2023/07/26 10:40:29;;;;;;;18.88;9.68;;;;;;;-144.30;32.29;80954.25;5018767;28;20213;-50
2023/07/26 10:42:57;;;;;;;13.73;10.10;;;;;;;-144.30;32.10;80872.88;5011439;28;20197;-51
2023/07/26 10:45:43;;;;;;;14.75;8.93;;;;;;;-144.30;32.54;80930.44;5011470;28;20201;-49
2023/07/26 10:48:13;;;;;;;14.10;9.73;;;;;;;-144.30;32.57;80890.72;5011354;28;20200;-50
2023/07/26 10:50:41;;;;;;;17.17;9.43;;;;;;;-144.30;31.81;80886.75;5011272;28;20201;-50
2023/07/26 10:53:30;;;;;;;27.08;16.20;;;;;;;-144.30;31.83;80878.81;5010223;28;20229;-54
2023/07/26 10:56:09;;;;;;;13.35;10.38;;;;;;;-144.30;31.76;80860.94;5028813;28;20203;-53
2023/07/26 10:58:37;;;;;;;18.35;10.82;;;;;;;-144.30;31.59;80856.97;5031038;28;20199;-53
2023/07/26 11:01:05;;;;;;;21.80;10.30;;;;;;;-144.30;31.05;80809.34;5031171;28;20199;-50
2023/07/26 11:03:32;;;;;;;16.45;10.63;;;;;;;-144.30;31.78;80823.22;5031016;28;20690;-52
2023/07/26 11:05:59;;;;;;;18.33;10.00;;;;;;;-144.30;31.93;80803.38;5027079;28;20197;-53
2023/07/26 11:08:42;;;;;;;15.25;10.25;;;;;;;-144.30;32.19;80841.09;5021829;28;20193;-50
2023/07/26 11:11:09;;;;;;;18.10;9.63;;;;;;;-144.30;32.05;80876.84;5013501;28;20614;-53